Aniara — SKJC — position and weather

sailwx.info

Track history (hours):
 
Tides and Currents Weather Stations Pressure Air Temp Water Temp Dewpoint Dewpoint Depression Visibility Wind Speed Wind Dir Waves Ship Positions

Aniara

Last reported at 2015-Apr-13 13:21 UTC. Time now 2015-Apr-21 02:59 UTC.
Position S 36°11' E 174°58'.

Length 232 m; draft 7.9 m.

Type: Cargo ship. MMSI: 266282000.

Date/timePositionNaut miles runAvg speedWind from/ knotsBaromVisibWave heightAir tempDewpointWater temp
2015-Apr-13 13:21S 36°11' E 174°58'7 9.1
2015-Apr-13 12:33S 36°18' E 174°58'9 9.2
2015-Apr-13 11:33S 36°27' E 174°59'9 9.1
2015-Apr-13 10:33S 36°36' E 174°57'9 8.9
2015-Apr-13 09:33S 36°44' E 174°51'7 7.5
2015-Apr-13 08:33S 36°50' E 174°46'0 0.2
2015-Apr-13 07:33S 36°50' E 174°46'0 0.0
2015-Apr-13 06:32S 36°50' E 174°46'0 0.0
2015-Apr-13 05:29S 36°50' E 174°46'0 0.0
2015-Apr-13 04:32S 36°50' E 174°46'0 0.0
2015-Apr-13 03:32S 36°50' E 174°46'0 0.0
2015-Apr-13 02:32S 36°50' E 174°46'2 1.6
2015-Apr-13 01:33S 36°50' E 174°48'1010.4
2015-Apr-13 00:33S 36°41' E 174°54'1212.1
2015-Apr-12 23:33S 36°29' E 174°58'  
2015-Apr-08 19:32S 37°18' E 150°12'1716.7
2015-Apr-08 18:31S 37°34' E 150°06'1616.1
2015-Apr-08 17:33S 37°47' E 149°54'1615.8
2015-Apr-08 16:33S 37°57' E 149°39'12315.4
2015-Apr-08 08:33S 39°01' E 147°25'1616.2
2015-Apr-08 07:33S 39°07' E 147°05'1818.0
2015-Apr-08 06:34S 39°13' E 146°43'1817.7
2015-Apr-08 05:34S 39°16' E 146°21'1717.0
2015-Apr-08 04:33S 39°09' E 146°01'1717.4
2015-Apr-08 03:34S 38°60' E 145°42'  
2015-Apr-05 10:03S 38°50' E 142°53'915.9
2015-Apr-05 09:30S 38°49' E 142°42'1515.9
2015-Apr-05 08:32S 38°47' E 142°22'1616.0
2015-Apr-05 07:33S 38°44' E 142°02'  
Track history (hours):
 
Tides and Currents Weather Stations Pressure Air Temp Water Temp Dewpoint Dewpoint Depression Visibility Wind Speed Wind Dir Waves Ship Positions

Aniara

Last reported at 2015-Apr-13 13:21 UTC. Time now 2015-Apr-21 02:59 UTC.
Position S 36°11' E 174°58'.

Length 232 m; draft 7.9 m.

Type: Cargo ship. MMSI: 266282000.

Date/timePositionNaut miles runAvg speedWind from/ knotsBaromVisibWave heightAir tempDewpointWater temp
2015-Apr-13 13:21S 36°11' E 174°58'7 9.1
2015-Apr-13 12:33S 36°18' E 174°58'9 9.2
2015-Apr-13 11:33S 36°27' E 174°59'9 9.1
2015-Apr-13 10:33S 36°36' E 174°57'9 8.9
2015-Apr-13 09:33S 36°44' E 174°51'7 7.5
2015-Apr-13 08:33S 36°50' E 174°46'0 0.2
2015-Apr-13 07:33S 36°50' E 174°46'0 0.0
2015-Apr-13 06:32S 36°50' E 174°46'0 0.0
2015-Apr-13 05:29S 36°50' E 174°46'0 0.0
2015-Apr-13 04:32S 36°50' E 174°46'0 0.0
2015-Apr-13 03:32S 36°50' E 174°46'0 0.0
2015-Apr-13 02:32S 36°50' E 174°46'2 1.6
2015-Apr-13 01:33S 36°50' E 174°48'1010.4
2015-Apr-13 00:33S 36°41' E 174°54'1212.1
2015-Apr-12 23:33S 36°29' E 174°58'  
2015-Apr-08 19:32S 37°18' E 150°12'1716.7
2015-Apr-08 18:31S 37°34' E 150°06'1616.1
2015-Apr-08 17:33S 37°47' E 149°54'1615.8
2015-Apr-08 16:33S 37°57' E 149°39'12315.4
2015-Apr-08 08:33S 39°01' E 147°25'1616.2
2015-Apr-08 07:33S 39°07' E 147°05'1818.0
2015-Apr-08 06:34S 39°13' E 146°43'1817.7
2015-Apr-08 05:34S 39°16' E 146°21'1717.0
2015-Apr-08 04:33S 39°09' E 146°01'1717.4
2015-Apr-08 03:34S 38°60' E 145°42'  
2015-Apr-05 10:03S 38°50' E 142°53'915.9
2015-Apr-05 09:30S 38°49' E 142°42'1515.9
2015-Apr-05 08:32S 38°47' E 142°22'1616.0
2015-Apr-05 07:33S 38°44' E 142°02'  

Dump ship's entire track history